Time;durP1;ratioP1;P1;durP2;ratioP2;P2;SDS_P1;SDS_P2;PMS_P1;PMS_P2;Temp;Humidity;BMP_temperature;BMP_pressure;BME280_temperature;BME280_humidity;BME280_pressure;Samples;Min_cycle;Max_cycle;Signal;HPM_P1;HPM_P2
2021/11/10 00:00:36;;;;;;;;;15.50;11.25;;;;;20.66;38.03;102109.31;4960849;28;51037;-49
2021/11/10 00:03:03;;;;;;;;;10.00;8.25;;;;;20.63;38.03;102099.53;4968540;28;54037;-52
2021/11/10 00:05:28;;;;;;;;;9.75;8.00;;;;;20.63;38.50;102104.19;4955003;28;51056;-48
2021/11/10 00:07:53;;;;;;;;;10.75;8.00;;;;;20.62;38.67;102100.56;4954226;28;50940;-52
2021/11/10 00:10:19;;;;;;;;;13.00;9.00;;;;;20.60;38.60;102094.41;4955047;28;51309;-52
2021/11/10 00:12:46;;;;;;;;;9.50;8.00;;;;;20.59;38.43;102091.88;4954855;28;51670;-49
2021/11/10 00:15:12;;;;;;;;;11.75;8.50;;;;;20.57;38.15;102085.69;4957904;28;51010;-53
2021/11/10 00:17:38;;;;;;;;;12.75;9.25;;;;;20.55;38.24;102077.66;4954530;28;51120;-51
2021/11/10 00:20:06;;;;;;;;;9.75;9.25;;;;;20.55;38.37;102083.16;4954616;28;51117;-51
2021/11/10 00:22:31;;;;;;;;;9.75;8.25;;;;;20.52;38.59;102077.16;4967163;28;52095;-50
2021/11/10 00:24:57;;;;;;;;;15.00;10.50;;;;;20.52;38.40;102082.66;4973874;28;51055;-49
2021/11/10 00:27:22;;;;;;;;;11.00;8.75;;;;;20.51;38.55;102083.72;4986253;28;50971;-47
2021/11/10 00:29:49;;;;;;;;;8.00;8.00;;;;;20.49;38.17;102067.38;4975049;28;51223;-51
2021/11/10 00:32:15;;;;;;;;;10.75;9.75;;;;;20.48;38.51;102046.41;4959188;28;52200;-51
2021/11/10 00:34:41;;;;;;;;;9.50;9.50;;;;;20.46;38.27;102048.53;4969192;28;50975;-50
2021/11/10 00:37:06;;;;;;;;;10.75;9.00;;;;;20.45;38.50;102057.81;4973620;28;51185;-49
2021/11/10 00:39:32;;;;;;;;;12.00;9.25;;;;;20.43;38.16;102070.94;4988907;28;51184;-50
2021/11/10 00:41:57;;;;;;;;;8.50;8.00;;;;;20.42;38.48;102075.56;4966849;28;51064;-48
2021/11/10 00:44:22;;;;;;;;;16.00;10.00;;;;;20.41;38.60;102067.47;4953820;28;51233;-49
2021/11/10 00:46:48;;;;;;;;;11.50;9.50;;;;;20.40;38.56;102060.25;4954084;28;51112;-50
2021/11/10 00:49:13;;;;;;;;;10.25;10.25;;;;;20.39;38.77;102058.56;4964063;28;51026;-50
2021/11/10 00:51:38;;;;;;;;;10.75;10.25;;;;;20.38;38.66;102063.19;4967311;28;51621;-47
2021/11/10 00:54:04;;;;;;;;;14.00;11.50;;;;;20.36;38.36;102059.78;4956768;28;51233;-50
2021/11/10 00:56:29;;;;;;;;;11.50;11.25;;;;;20.36;38.63;102050.69;4953741;28;50987;-52
2021/11/10 00:58:55;;;;;;;;;13.25;11.75;;;;;20.35;38.19;102054.50;4956532;28;51193;-52
2021/11/10 01:01:21;;;;;;;;;12.50;11.75;;;;;20.33;38.43;102045.56;4955791;28;51143;-50
2021/11/10 01:03:46;;;;;;;;;10.00;10.00;;;;;20.32;38.85;102033.72;4972603;28;51303;-52
2021/11/10 01:06:12;;;;;;;;;14.25;12.50;;;;;20.31;38.66;102031.97;4973499;28;51098;-53
2021/11/10 01:08:37;;;;;;;;;12.00;10.50;;;;;20.31;38.76;102014.63;4973329;28;50934;-51
2021/11/10 01:11:03;;;;;;;;;14.50;12.25;;;;;20.30;38.67;102015.66;4971600;28;51715;-52
2021/11/10 01:13:28;;;;;;;;;10.75;10.50;;;;;20.29;38.64;102022.22;4955551;28;51185;-51
2021/11/10 01:15:54;;;;;;;;;12.25;12.25;;;;;20.27;38.77;102016.06;4953796;28;51356;-53
2021/11/10 01:18:20;;;;;;;;;19.25;12.00;;;;;20.27;38.69;102010.56;4953646;28;51304;-51
2021/11/10 01:20:45;;;;;;;;;11.50;10.75;;;;;20.26;38.82;102017.97;4955942;28;51922;-52
2021/11/10 01:23:11;;;;;;;;;11.75;11.50;;;;;20.25;38.77;102012.66;4958853;28;51143;-53
2021/11/10 01:25:38;;;;;;;;;13.25;13.25;;;;;20.23;38.71;102014.75;4973048;28;51112;-52
2021/11/10 01:28:06;;;;;;;;;14.00;14.00;;;;;20.23;38.59;102020.25;4979475;28;51359;-51
2021/11/10 01:30:32;;;;;;;;;12.75;11.00;;;;;20.22;38.54;102022.16;4956387;28;52620;-48
2021/11/10 01:32:57;;;;;;;;;13.00;12.00;;;;;20.21;38.73;102016.81;4966155;28;51550;-51
2021/11/10 01:35:23;;;;;;;;;13.00;10.50;;;;;20.20;38.63;102024.22;4974803;28;51022;-49
2021/11/10 01:37:48;;;;;;;;;12.75;11.75;;;;;20.19;38.68;102023.38;4975345;28;51021;-50
2021/11/10 01:40:16;;;;;;;;;12.75;11.00;;;;;20.17;38.70;102014.47;4975284;28;51625;-53
2021/11/10 01:42:43;;;;;;;;;15.25;14.00;;;;;20.17;39.18;102019.97;4958482;28;52802;-53
2021/11/10 01:45:11;;;;;;;;;15.00;13.00;;;;;20.17;38.74;102027.38;5039720;28;51029;-51
2021/11/10 01:47:38;;;;;;;;;15.25;13.25;;;;;20.15;38.88;102032.22;4973872;28;51173;-50
2021/11/10 01:50:07;;;;;;;;;15.00;12.00;;;;;20.15;38.83;102029.47;4959377;28;51033;-51
2021/11/10 01:52:32;;;;;;;;;14.75;12.25;;;;;20.12;38.77;102011.44;4956060;28;51196;-48
2021/11/10 01:54:58;;;;;;;;;14.00;12.75;;;;;20.12;38.75;102014.19;4969439;28;51033;-50
2021/11/10 01:57:23;;;;;;;;;12.50;12.25;;;;;20.11;38.93;102018.00;4975422;28;50977;-49
2021/11/10 02:00:01;;;;;;;;;15.50;13.50;;;;;20.11;38.77;102026.25;4990548;28;53293;-50
2021/11/10 02:02:29;;;;;;;;;13.00;12.50;;;;;20.11;38.76;102025.38;4971910;28;51006;-47
2021/11/10 02:04:54;;;;;;;;;14.75;13.50;;;;;20.09;39.08;102027.47;4964661;28;51263;-49
2021/11/10 02:07:20;;;;;;;;;13.25;10.75;;;;;20.07;39.05;102030.41;4968724;28;51167;-48
2021/11/10 02:09:48;;;;;;;;;15.75;13.25;;;;;20.08;39.05;102029.38;4971690;28;51620;-52
2021/11/10 02:12:14;;;;;;;;;14.00;11.75;;;;;20.06;38.85;102036.97;4968860;28;51436;-51
2021/11/10 02:14:40;;;;;;;;;17.25;14.25;;;;;20.06;38.83;102031.47;4977902;28;51065;-48
2021/11/10 02:17:11;;;;;;;;;17.25;13.25;;;;;20.05;38.95;102018.75;4970957;28;50966;-50
2021/11/10 02:19:36;;;;;;;;;13.25;13.25;;;;;20.03;38.96;102003.50;5009653;28;51881;-52
2021/11/10 02:22:02;;;;;;;;;13.75;13.75;;;;;20.03;39.03;102007.09;4972750;28;51041;-52
2021/11/10 02:24:29;;;;;;;;;16.00;12.00;;;;;20.02;39.02;102002.66;4956111;28;51221;-51
2021/11/10 02:26:55;;;;;;;;;18.25;14.25;;;;;20.01;39.10;102009.19;4961473;28;51007;-51
2021/11/10 02:29:24;;;;;;;;;14.75;12.50;;;;;20.01;38.81;102013.81;4955807;28;51022;-50
2021/11/10 02:31:51;;;;;;;;;18.00;16.25;;;;;20.00;39.06;102007.47;4965777;28;51208;-48
2021/11/10 02:34:17;;;;;;;;;12.25;11.25;;;;;19.98;39.09;102001.31;5039695;28;51382;-53
2021/11/10 02:36:44;;;;;;;;;13.50;13.50;;;;;19.98;39.04;101994.94;4954595;28;50979;-47
2021/11/10 02:39:13;;;;;;;;;12.75;12.50;;;;;19.98;39.04;101997.69;4952696;28;53702;-52
2021/11/10 02:41:39;;;;;;;;;20.75;14.00;;;;;19.97;39.14;101988.59;4971867;28;51019;-50
2021/11/10 02:44:06;;;;;;;;;13.50;12.75;;;;;19.96;39.36;101984.16;5076673;28;51065;-50
2021/11/10 02:46:35;;;;;;;;;15.50;13.50;;;;;19.96;39.13;101975.91;5042081;27;50970;-52
2021/11/10 02:49:00;;;;;;;;;17.50;14.00;;;;;19.95;39.13;101987.94;4974620;28;50994;-51
2021/11/10 02:51:26;;;;;;;;;16.25;13.75;;;;;19.95;39.23;101987.94;4974879;28;50916;-50
2021/11/10 02:53:51;;;;;;;;;17.50;14.00;;;;;19.94;39.23;101983.50;4955569;28;51074;-53
2021/11/10 02:56:17;;;;;;;;;18.50;13.25;;;;;19.94;39.24;101979.88;4956062;28;51039;-49
2021/11/10 02:58:43;;;;;;;;;17.75;16.25;;;;;19.93;39.28;101989.19;4998797;28;52177;-51
2021/11/10 03:01:08;;;;;;;;;15.00;12.25;;;;;19.92;39.12;101985.59;5077819;27;51127;-51
2021/11/10 03:03:34;;;;;;;;;16.50;13.25;;;;;19.92;39.16;101984.72;4986958;27;51281;-51
2021/11/10 03:06:00;;;;;;;;;16.00;15.00;;;;;19.89;39.11;101974.94;4973896;28;51318;-52
2021/11/10 03:08:25;;;;;;;;;11.75;11.75;;;;;19.90;39.24;101982.16;4974430;28;51861;-53
2021/11/10 03:10:51;;;;;;;;;15.00;14.25;;;;;19.89;39.38;101977.69;4975088;28;51027;-52
2021/11/10 03:13:17;;;;;;;;;18.50;16.00;;;;;19.88;39.11;101976.00;4960461;28;51510;-55
2021/11/10 03:15:44;;;;;;;;;14.75;13.50;;;;;19.87;39.13;101964.13;4955258;28;51307;-53
2021/11/10 03:18:10;;;;;;;;;13.50;13.50;;;;;19.87;39.50;101971.53;4967825;28;52006;-51
2021/11/10 03:20:36;;;;;;;;;16.00;16.00;;;;;19.86;39.18;101973.44;4955193;28;51603;-53
2021/11/10 03:23:02;;;;;;;;;14.75;13.00;;;;;19.86;39.37;101981.69;4953828;28;51197;-52
2021/11/10 03:25:27;;;;;;;;;13.00;12.50;;;;;19.84;39.42;101975.53;4956165;28;51000;-51
2021/11/10 03:27:54;;;;;;;;;20.00;17.75;;;;;19.84;39.28;101983.78;4960986;28;51863;-52
2021/11/10 03:30:20;;;;;;;;;16.75;16.00;;;;;19.84;39.60;101983.78;4961264;28;51423;-52
2021/11/10 03:32:45;;;;;;;;;15.25;14.50;;;;;19.83;39.39;101982.06;4955247;28;51116;-50
2021/11/10 03:35:12;;;;;;;;;17.75;14.50;;;;;19.84;39.44;101985.69;4996168;28;51303;-49
2021/11/10 03:37:38;;;;;;;;;14.75;13.50;;;;;19.82;39.45;101985.03;5076766;27;52078;-52
2021/11/10 03:40:05;;;;;;;;;17.75;16.25;;;;;19.81;39.58;102002.56;5077161;27;51082;-51
2021/11/10 03:42:30;;;;;;;;;16.00;16.00;;;;;19.80;39.07;102007.22;5036823;27;51314;-53
2021/11/10 03:44:56;;;;;;;;;14.75;14.75;;;;;19.80;39.36;101992.59;4974801;28;50931;-49
2021/11/10 03:47:21;;;;;;;;;17.75;15.25;;;;;19.78;39.46;101987.28;4974084;28;50967;-53
2021/11/10 03:49:47;;;;;;;;;19.50;16.75;;;;;19.78;39.49;101986.44;4974198;28;51093;-53
2021/11/10 03:52:14;;;;;;;;;21.50;17.25;;;;;19.76;39.59;101985.78;4969207;28;51704;-51
2021/11/10 03:54:41;;;;;;;;;18.00;17.50;;;;;19.76;39.24;101988.53;4955103;28;51207;-53
2021/11/10 03:57:06;;;;;;;;;19.25;17.75;;;;;19.75;39.40;101990.41;4954659;28;51075;-49
2021/11/10 03:59:32;;;;;;;;;22.50;22.50;;;;;19.75;39.50;101997.81;4954815;28;51214;-51
2021/11/10 04:01:57;;;;;;;;;20.00;19.25;;;;;19.76;39.60;101988.53;4956481;28;51021;-50
2021/11/10 04:04:22;;;;;;;;;13.50;11.75;;;;;19.74;39.50;102002.47;4973830;28;51053;-51
2021/11/10 04:06:49;;;;;;;;;21.75;18.50;;;;;19.74;39.61;102015.34;4972365;28;51089;-49
2021/11/10 04:09:14;;;;;;;;;23.00;17.50;;;;;19.74;39.54;102026.34;4974280;28;51088;-51
2021/11/10 04:11:39;;;;;;;;;21.25;20.25;;;;;19.72;39.29;102037.53;4972892;28;51221;-53
2021/11/10 04:14:05;;;;;;;;;19.00;18.50;;;;;19.73;39.61;102071.38;4971806;28;51130;-50
2021/11/10 04:16:31;;;;;;;;;23.00;22.75;;;;;19.71;39.52;102071.56;4973840;28;51046;-52
2021/11/10 04:18:57;;;;;;;;;20.75;18.50;;;;;19.70;39.31;102056.13;4973977;28;51063;-51
2021/11/10 04:21:23;;;;;;;;;21.50;19.25;;;;;19.71;39.39;102051.47;4974097;28;50939;-52
2021/11/10 04:23:53;;;;;;;;;21.75;20.75;;;;;19.70;39.76;102058.88;4956816;28;51264;-52
2021/11/10 04:26:19;;;;;;;;;22.25;20.75;;;;;19.70;39.50;102060.78;4962132;28;52943;-52
2021/11/10 04:28:44;;;;;;;;;24.50;22.75;;;;;19.69;39.23;102043.41;4975433;28;51503;-51
2021/11/10 04:31:10;;;;;;;;;24.25;21.25;;;;;19.67;39.24;102048.22;4970507;28;50914;-50
2021/11/10 04:33:35;;;;;;;;;22.00;21.25;;;;;19.67;39.59;102036.38;4962819;28;51016;-53
2021/11/10 04:36:01;;;;;;;;;20.75;19.00;;;;;19.67;39.38;102039.97;4968970;28;51029;-51
2021/11/10 04:38:26;;;;;;;;;21.50;21.00;;;;;19.67;39.37;102039.13;4965108;28;51128;-50
2021/11/10 04:40:52;;;;;;;;;25.25;22.50;;;;;19.66;39.39;102034.69;4977255;28;51161;-48
2021/11/10 04:43:18;;;;;;;;;24.25;23.25;;;;;19.65;39.31;102024.72;4969184;28;51123;-51
2021/11/10 04:45:45;;;;;;;;;25.50;20.75;;;;;19.65;39.43;102024.72;4952670;28;51769;-52
2021/11/10 04:48:11;;;;;;;;;24.75;19.25;;;;;19.63;39.35;102035.91;4954058;28;51430;-49
2021/11/10 04:50:38;;;;;;;;;22.50;20.50;;;;;19.63;39.48;102037.81;4954154;28;51510;-49
2021/11/10 04:53:03;;;;;;;;;22.00;19.75;;;;;19.62;39.61;102038.84;4963734;28;51410;-51
2021/11/10 04:55:29;;;;;;;;;23.00;20.50;;;;;19.61;39.49;102038.00;4973152;28;51820;-50
2021/11/10 04:57:55;;;;;;;;;21.00;19.75;;;;;19.60;39.52;102042.66;4973358;28;51293;-51
2021/11/10 05:00:20;;;;;;;;;24.50;21.00;;;;;19.62;39.57;102036.09;4973733;28;50986;-52
2021/11/10 05:02:46;;;;;;;;;19.25;18.50;;;;;19.60;39.51;102015.16;4966211;28;51209;-51
2021/11/10 05:05:11;;;;;;;;;25.00;19.75;;;;;19.59;39.49;102002.47;4956859;28;50935;-52
2021/11/10 05:07:37;;;;;;;;;20.25;18.25;;;;;19.59;39.50;101996.09;4956692;28;51249;-51
2021/11/10 05:10:04;;;;;;;;;21.00;18.00;;;;;19.58;39.59;101997.97;4956989;28;51043;-51
2021/11/10 05:12:29;;;;;;;;;21.75;17.50;;;;;19.58;39.59;101995.22;4965838;28;51058;-50
2021/11/10 05:14:57;;;;;;;;;21.00;19.50;;;;;19.58;39.38;101989.75;4976234;28;52009;-53
2021/11/10 05:17:25;;;;;;;;;24.00;18.00;;;;;19.56;39.44;101991.81;4976389;28;51316;-53
2021/11/10 05:19:51;;;;;;;;;20.25;18.75;;;;;19.56;39.72;101986.34;4976081;28;51117;-52
2021/11/10 05:22:16;;;;;;;;;22.50;19.25;;;;;19.56;39.83;101975.34;4958269;28;51176;-50
2021/11/10 05:24:42;;;;;;;;;20.75;18.25;;;;;19.55;39.65;101978.25;4956572;28;50873;-52
2021/11/10 05:27:08;;;;;;;;;20.50;18.75;;;;;19.55;39.73;101981.88;4977552;28;50993;-52
2021/11/10 05:29:33;;;;;;;;;19.50;17.00;;;;;19.54;39.55;101977.41;4995812;28;50972;-52
2021/11/10 05:31:59;;;;;;;;;17.50;16.00;;;;;19.54;39.54;101982.88;4980820;28;51033;-53
2021/11/10 05:34:24;;;;;;;;;27.50;22.00;;;;;19.54;39.34;101977.41;4976863;28;52013;-52
2021/11/10 05:36:50;;;;;;;;;26.75;24.75;;;;;19.53;38.81;101972.94;5078872;27;51628;-53
2021/11/10 05:39:17;;;;;;;;;29.50;27.25;;;;;19.51;38.63;101969.53;5006982;28;51216;-51
2021/11/10 05:41:44;;;;;;;;;31.25;27.75;;;;;19.49;38.00;101970.78;4956591;28;51210;-52
2021/11/10 05:44:10;;;;;;;;;32.00;30.50;;;;;19.46;37.68;101960.13;4966957;28;52810;-53
2021/11/10 05:46:35;;;;;;;;;29.00;26.50;;;;;19.43;37.71;101958.63;4974034;28;51128;-53
2021/11/10 05:49:01;;;;;;;;;25.75;23.50;;;;;19.43;37.49;101957.78;4962897;28;51317;-54
2021/11/10 05:51:26;;;;;;;;;24.50;23.00;;;;;19.47;37.59;101953.59;4970956;28;51073;-51
2021/11/10 05:53:54;;;;;;;;;27.00;22.75;;;;;19.53;37.77;101939.97;4954591;28;51832;-52
2021/11/10 05:56:21;;;;;;;;;22.75;21.00;;;;;19.60;37.45;101938.22;4956356;28;51069;-52
2021/11/10 05:58:49;;;;;;;;;21.00;20.50;;;;;19.69;37.22;101947.19;4956207;28;51194;-47
2021/11/10 06:01:15;;;;;;;;;20.00;17.00;;;;;19.77;37.71;101962.72;4963582;28;51290;-52
2021/11/10 06:03:41;;;;;;;;;18.00;17.75;;;;;19.84;37.41;101972.78;4975341;28;51950;-51
2021/11/10 06:06:07;;;;;;;;;18.50;16.50;;;;;19.93;37.56;101964.44;4974196;28;51582;-51
2021/11/10 06:08:36;;;;;;;;;18.75;17.75;;;;;20.01;37.19;101970.69;4975415;28;51075;-51
2021/11/10 06:11:11;;;;;;;;;18.75;18.25;;;;;20.09;37.29;101977.94;4975310;28;51143;-51
2021/11/10 06:13:38;;;;;;;;;19.25;17.25;;;;;20.15;37.69;101997.31;4972969;28;51036;-51
2021/11/10 06:16:04;;;;;;;;;16.50;14.00;;;;;20.23;37.38;102003.75;4968755;28;51689;-52
2021/11/10 06:18:30;;;;;;;;;17.00;16.75;;;;;20.28;37.08;102007.63;4958696;28;51300;-51
2021/11/10 06:20:57;;;;;;;;;18.75;16.00;;;;;20.36;37.32;102014.91;4954610;28;52848;-50
2021/11/10 06:23:22;;;;;;;;;16.75;14.25;;;;;20.42;37.25;102022.38;4954511;28;52264;-50
2021/11/10 06:25:48;;;;;;;;;13.50;13.25;;;;;20.47;37.51;102017.19;4956514;28;51117;-50
2021/11/10 06:28:14;;;;;;;;;15.25;15.25;;;;;20.56;37.90;102016.03;4961939;28;51338;-50
2021/11/10 06:30:40;;;;;;;;;16.00;13.50;;;;;20.61;37.79;102016.28;4968327;28;51406;-52
2021/11/10 06:33:06;;;;;;;;;15.75;14.25;;;;;20.69;37.73;102029.06;4963855;28;52065;-52
2021/11/10 06:35:32;;;;;;;;;14.25;12.50;;;;;20.75;37.75;102031.91;4964425;28;51001;-52
2021/11/10 06:37:57;;;;;;;;;12.25;11.50;;;;;20.80;37.93;102039.56;4963900;28;51519;-50
2021/11/10 06:40:22;;;;;;;;;16.50;12.00;;;;;20.88;37.51;102041.34;4957836;28;51114;-47
2021/11/10 06:42:48;;;;;;;;;10.00;9.50;;;;;20.94;37.50;102046.06;4972491;28;51962;-51
2021/11/10 06:45:13;;;;;;;;;14.25;13.25;;;;;20.99;37.52;102052.69;4965867;28;51254;-49
2021/11/10 06:47:39;;;;;;;;;14.75;12.00;;;;;21.06;37.52;102058.28;4958942;28;51273;-48
2021/11/10 06:50:05;;;;;;;;;12.25;10.00;;;;;21.11;37.90;102075.06;4961388;28;51201;-53
2021/11/10 06:52:31;;;;;;;;;13.25;12.75;;;;;21.17;37.61;102085.31;4965736;28;52625;-47
2021/11/10 06:54:57;;;;;;;;;11.00;9.75;;;;;21.23;38.02;102092.78;4960986;28;51217;-48
2021/11/10 06:57:22;;;;;;;;;14.50;12.75;;;;;21.25;37.84;102104.44;4963052;28;51742;-51
2021/11/10 06:59:48;;;;;;;;;17.00;11.25;;;;;21.26;37.87;102100.69;4964055;28;51095;-53
2021/11/10 07:02:13;;;;;;;;;14.25;11.75;;;;;21.25;37.46;102107.19;4964145;28;51463;-51
2021/11/10 07:04:38;;;;;;;;;11.25;10.50;;;;;21.23;37.62;102113.97;4962085;28;51278;-51
2021/11/10 07:07:04;;;;;;;;;12.25;10.75;;;;;21.21;37.79;102113.31;4965279;28;51097;-47
2021/11/10 07:09:30;;;;;;;;;12.75;12.25;;;;;21.19;38.13;102110.75;4970441;28;51157;-49
2021/11/10 07:11:56;;;;;;;;;14.00;11.50;;;;;21.18;38.23;102113.72;4970351;28;54136;-51
2021/11/10 07:14:23;;;;;;;;;13.25;11.50;;;;;21.20;37.80;102112.47;4965667;28;51226;-52
2021/11/10 07:16:48;;;;;;;;;16.00;11.50;;;;;21.24;38.27;102091.72;4958361;28;51377;-52
2021/11/10 07:19:14;;;;;;;;;12.00;11.00;;;;;21.29;37.79;102094.78;4954501;28;51021;-50
2021/11/10 07:21:40;;;;;;;;;18.50;14.50;;;;;21.34;37.82;102094.19;4958639;28;51264;-51
2021/11/10 07:24:05;;;;;;;;;13.75;13.00;;;;;21.38;38.33;102092.75;4963381;28;50990;-53
2021/11/10 07:26:32;;;;;;;;;14.00;12.75;;;;;21.44;38.10;102082.81;4966545;28;51378;-52
2021/11/10 07:28:57;;;;;;;;;13.25;11.75;;;;;21.48;38.02;102085.00;4979299;28;51058;-53
2021/11/10 07:31:22;;;;;;;;;11.25;10.50;;;;;21.53;37.89;102090.75;4968012;28;51152;-50
2021/11/10 07:33:48;;;;;;;;;14.50;13.00;;;;;21.57;38.33;102097.59;4955275;28;51038;-50
2021/11/10 07:36:14;;;;;;;;;13.50;11.25;;;;;21.62;38.14;102102.50;4974405;28;50990;-50
2021/11/10 07:38:39;;;;;;;;;12.25;11.50;;;;;21.66;38.18;102084.47;4974298;28;51239;-49
2021/11/10 07:41:12;;;;;;;;;16.50;16.25;;;;;21.68;37.53;102082.41;4974245;28;52884;-56
2021/11/10 07:43:37;;;;;;;;;16.25;11.75;;;;;21.68;37.95;102090.66;4957963;28;51160;-51
2021/11/10 07:46:11;;;;;;;;;11.50;11.50;;;;;21.66;38.19;102086.38;4957803;28;51426;-50
2021/11/10 07:48:37;;;;;;;;;17.50;14.50;;;;;21.63;37.82;102073.00;4958967;28;51216;-50
2021/11/10 07:51:02;;;;;;;;;18.75;14.25;;;;;21.60;37.95;102068.75;4968003;28;51899;-48
2021/11/10 07:53:28;;;;;;;;;17.25;15.25;;;;;21.57;37.24;102070.00;4964657;28;50978;-51
2021/11/10 07:55:54;;;;;;;;;21.50;19.00;;;;;21.58;37.32;102074.47;4963461;28;51493;-49
2021/11/10 07:58:19;;;;;;;;;20.25;18.25;;;;;21.61;37.30;102067.69;4959701;28;51267;-50
2021/11/10 08:00:44;;;;;;;;;20.25;16.50;;;;;21.64;37.07;102070.03;4968864;28;51723;-50
2021/11/10 08:03:10;;;;;;;;;26.00;21.25;;;;;21.63;36.99;102071.09;4966779;28;51211;-50
2021/11/10 08:05:36;;;;;;;;;26.50;22.00;;;;;21.59;36.40;102072.56;4960851;28;51104;-53
2021/11/10 08:08:02;;;;;;;;;24.25;20.25;;;;;21.52;36.29;102078.00;4969373;28;51431;-50
2021/11/10 08:10:28;;;;;;;;;21.75;20.75;;;;;21.46;36.32;102080.72;4953200;28;53003;-53
2021/11/10 08:12:54;;;;;;;;;23.25;20.00;;;;;21.40;36.79;102087.88;4954687;28;51168;-52
2021/11/10 08:15:19;;;;;;;;;24.25;21.25;;;;;21.35;36.67;102092.28;4963436;28;51152;-54
2021/11/10 08:17:45;;;;;;;;;25.75;25.25;;;;;21.28;36.67;102095.84;4973277;27;51136;-51
2021/11/10 08:20:16;;;;;;;;;26.00;24.50;;;;;21.23;36.52;102101.03;4972811;28;51552;-53
2021/11/10 08:22:44;;;;;;;;;26.00;22.25;;;;;21.17;36.19;102101.00;4973802;28;51118;-51
2021/11/10 08:25:11;;;;;;;;;30.00;27.75;;;;;21.11;36.43;102099.88;4973876;28;51133;-52
2021/11/10 08:27:37;;;;;;;;;31.25;28.00;;;;;21.04;36.25;102091.53;4969530;28;51060;-52
2021/11/10 08:30:08;;;;;;;;;31.75;26.50;;;;;21.02;36.70;102103.78;4956220;28;51861;-52
2021/11/10 08:32:34;;;;;;;;;29.25;23.75;;;;;20.97;36.40;102098.88;4950364;28;51481;-53
2021/11/10 08:35:00;;;;;;;;;27.50;23.50;;;;;20.93;36.94;102105.81;4958099;28;51382;-52
2021/11/10 08:37:25;;;;;;;;;31.00;24.75;;;;;20.93;37.02;102096.69;4951946;28;51062;-52
2021/11/10 08:39:51;;;;;;;;;27.25;20.50;;;;;20.93;36.68;102094.78;4957215;28;51051;-52
2021/11/10 08:42:16;;;;;;;;;26.75;23.75;;;;;20.92;36.70;102090.34;4962630;27;51037;-53
2021/11/10 08:44:44;;;;;;;;;26.75;23.25;;;;;20.93;36.78;102093.94;4954594;28;51153;-51
2021/11/10 08:47:11;;;;;;;;;25.25;21.50;;;;;20.95;36.97;102108.41;4959567;28;51293;-52
2021/11/10 08:49:36;;;;;;;;;25.00;23.00;;;;;20.94;36.70;102104.75;4953818;28;51158;-53
2021/11/10 08:52:03;;;;;;;;;24.50;23.00;;;;;20.97;36.87;102103.53;4963572;28;51226;-52
2021/11/10 08:54:28;;;;;;;;;22.75;21.50;;;;;20.98;37.30;102096.97;4955035;28;51163;-53
2021/11/10 08:56:56;;;;;;;;;32.00;25.00;;;;;20.99;36.91;102101.44;4954797;28;51202;-53
2021/11/10 08:59:22;;;;;;;;;20.25;18.50;;;;;20.98;36.90;102096.97;4967457;28;51270;-50
2021/11/10 09:01:52;;;;;;;;;25.50;24.00;;;;;21.00;37.27;102097.63;4957192;28;51115;-53
2021/11/10 09:04:18;;;;;;;;;23.25;19.50;;;;;21.01;37.16;102097.44;4958187;28;52186;-53
2021/11/10 09:06:45;;;;;;;;;24.50;21.00;;;;;21.01;36.91;102105.69;4956576;28;51849;-52
2021/11/10 09:09:12;;;;;;;;;23.50;21.25;;;;;21.03;37.38;102097.22;4962851;28;51988;-53
2021/11/10 09:11:38;;;;;;;;;23.50;22.50;;;;;21.03;37.08;102106.34;4953644;28;51551;-53
2021/11/10 09:14:03;;;;;;;;;23.25;21.50;;;;;21.03;37.42;102111.84;4958874;28;51228;-54
2021/11/10 09:16:29;;;;;;;;;22.25;20.75;;;;;21.02;37.52;102106.53;4957553;28;51469;-50
2021/11/10 09:18:54;;;;;;;;;33.00;29.25;;;;;21.01;37.19;102097.44;4954227;28;51850;-52
2021/11/10 09:21:19;;;;;;;;;21.25;20.75;;;;;21.03;37.26;102086.22;4961819;28;51019;-53
2021/11/10 09:23:45;;;;;;;;;26.00;22.00;;;;;21.02;36.76;102070.72;4968005;28;51137;-52
2021/11/10 09:26:11;;;;;;;;;25.75;22.50;;;;;21.02;36.92;102077.09;4956793;28;51335;-51
2021/11/10 09:28:36;;;;;;;;;24.50;23.50;;;;;21.06;36.76;102079.47;4954128;28;51030;-54
2021/11/10 09:31:03;;;;;;;;;25.00;22.75;;;;;21.06;36.90;102079.47;4952059;28;51304;-50
2021/11/10 09:33:30;;;;;;;;;28.00;21.75;;;;;21.08;37.14;102069.09;4963189;28;51310;-53
2021/11/10 09:35:56;;;;;;;;;24.00;23.00;;;;;21.09;37.25;102066.16;4956260;28;52613;-54
2021/11/10 09:38:23;;;;;;;;;25.00;22.25;;;;;21.12;36.76;102068.50;4963988;28;51820;-54
2021/11/10 09:40:50;;;;;;;;;22.50;21.50;;;;;21.16;36.65;102075.34;4952303;28;51658;-49
2021/11/10 09:43:16;;;;;;;;;15.75;13.75;;;;;21.23;36.96;102078.16;4955272;28;51164;-50
2021/11/10 09:45:44;;;;;;;;;24.50;22.25;;;;;21.30;36.50;102090.13;4953711;28;51175;-51
2021/11/10 09:48:09;;;;;;;;;27.25;22.00;;;;;21.36;36.81;102089.31;4960230;28;51169;-50
2021/11/10 09:50:44;;;;;;;;;23.00;21.75;;;;;21.44;36.51;102091.09;4958157;28;51126;-53
2021/11/10 09:53:10;;;;;;;;;26.00;22.50;;;;;21.52;36.75;102090.94;4987441;28;51512;-49
2021/11/10 09:55:36;;;;;;;;;24.00;20.75;;;;;21.61;36.38;102103.53;4955983;28;51228;-52
2021/11/10 09:58:02;;;;;;;;;22.25;20.25;;;;;21.67;36.61;102113.75;4966784;28;52113;-54
2021/11/10 10:00:34;;;;;;;;;25.50;23.25;;;;;21.74;35.92;102120.19;4962567;28;51138;-54
2021/11/10 10:03:02;;;;;;;;;27.75;20.75;;;;;21.82;35.92;102122.81;4968202;28;52967;-52
2021/11/10 10:05:27;;;;;;;;;24.00;21.75;;;;;21.90;36.40;102130.09;4961546;28;51338;-53
2021/11/10 10:07:56;;;;;;;;;27.75;24.75;;;;;21.98;36.27;102129.06;4958622;28;51549;-54
2021/11/10 10:10:24;;;;;;;;;23.50;23.50;;;;;22.06;35.71;102139.94;4957792;28;51470;-53
2021/11/10 10:12:55;;;;;;;;;25.50;22.25;;;;;22.13;36.07;102141.72;4961223;28;51056;-52
2021/11/10 10:15:22;;;;;;;;;22.75;20.50;;;;;22.21;35.79;102146.25;4961593;28;51296;-53
2021/11/10 10:17:48;;;;;;;;;26.75;21.75;;;;;22.28;35.34;102149.88;4950938;28;52760;-53
2021/11/10 10:20:28;;;;;;;;;21.25;21.00;;;;;22.35;35.66;102144.41;4965128;28;51474;-50
2021/11/10 10:22:55;;;;;;;;;24.00;21.75;;;;;22.40;35.22;102148.25;4967312;28;50993;-53
2021/11/10 10:25:22;;;;;;;;;22.50;22.00;;;;;22.41;35.72;102146.38;4961234;28;51375;-53
2021/11/10 10:27:54;;;;;;;;;23.75;22.50;;;;;22.39;35.22;102129.13;4988941;28;51212;-52
2021/11/10 10:30:24;;;;;;;;;26.25;25.00;;;;;22.38;35.24;102131.03;4956799;28;51359;-52
2021/11/10 10:33:12;;;;;;;;;32.50;23.75;;;;;22.35;35.22;102114.03;4960981;28;51537;-51
2021/11/10 10:35:41;;;;;;;;;25.50;24.50;;;;;22.33;35.13;102108.72;4957702;28;51140;-53
2021/11/10 10:38:11;;;;;;;;;26.50;23.50;;;;;22.32;35.73;102117.22;4958634;28;51942;-52
2021/11/10 10:40:40;;;;;;;;;24.50;23.50;;;;;22.32;35.19;102107.03;4964021;28;51096;-50
2021/11/10 10:43:06;;;;;;;;;26.25;23.75;;;;;22.37;35.51;102098.13;4958231;28;51221;-53
2021/11/10 10:45:41;;;;;;;;;27.25;24.25;;;;;22.42;35.17;102099.22;4963790;28;51259;-52
2021/11/10 10:48:19;;;;;;;;;23.00;21.50;;;;;22.51;35.05;102097.16;4956682;28;51844;-53
2021/11/10 10:50:54;;;;;;;;;28.75;26.00;;;;;22.58;35.18;102088.88;4953889;28;51238;-53
2021/11/10 10:53:41;;;;;;;;;27.00;23.25;;;;;22.59;35.17;102082.28;4960317;28;51269;-52
2021/11/10 10:56:16;;;;;;;;;27.00;24.25;;;;;22.60;35.20;102082.06;4965615;28;51188;-53
2021/11/10 10:58:42;;;;;;;;;30.50;23.75;;;;;22.59;35.40;102080.38;4959702;28;51286;-52
2021/11/10 11:01:30;;;;;;;;;27.75;26.50;;;;;22.59;35.04;102074.84;4957474;28;51492;-52
2021/11/10 11:04:16;;;;;;;;;30.25;25.50;;;;;22.58;35.12;102070.38;4956897;28;52434;-53
2021/11/10 11:07:06;;;;;;;;;30.75;25.75;;;;;22.57;35.11;102071.44;4962261;28;51375;-53